sensor_id;sensor_type;location;lat;lon;timestamp;pressure;altitude;pressure_sealevel;temperature;humidity
68758;BME280;55747;51.998;4.466;2023-04-06T00:02:08;56320.72;;;-144.48;76.17
68758;BME280;55747;51.998;4.466;2023-04-06T00:04:33;56329.00;;;-144.48;75.46
68758;BME280;55747;51.998;4.466;2023-04-06T00:06:58;56298.00;;;-144.48;75.02
68758;BME280;55747;51.998;4.466;2023-04-06T00:09:24;56353.81;;;-144.48;74.86
68758;BME280;55747;51.998;4.466;2023-04-06T00:11:51;56333.13;;;-144.48;74.18
68758;BME280;55747;51.998;4.466;2023-04-06T00:14:17;56302.13;;;-144.48;73.84
68758;BME280;55747;51.998;4.466;2023-04-06T00:16:42;56289.72;;;-144.48;72.81
68758;BME280;55747;51.998;4.466;2023-04-06T00:19:07;56314.53;;;-144.48;72.13
68758;BME280;55747;51.998;4.466;2023-04-06T00:21:33;56320.72;;;-144.48;72.15
68758;BME280;55747;51.998;4.466;2023-04-06T00:23:58;56316.59;;;-144.48;72.15
68758;BME280;55747;51.998;4.466;2023-04-06T00:26:23;56302.13;;;-144.48;72.04
68758;BME280;55747;51.998;4.466;2023-04-06T00:28:48;56318.66;;;-144.48;71.22
68758;BME280;55747;51.998;4.466;2023-04-06T00:31:15;56322.78;;;-144.48;71.66
68758;BME280;55747;51.998;4.466;2023-04-06T00:33:40;56312.47;;;-144.48;71.10
68758;BME280;55747;51.998;4.466;2023-04-06T00:36:06;56370.34;;;-144.48;71.35
68758;BME280;55747;51.998;4.466;2023-04-06T00:38:31;56285.59;;;-144.48;71.92
68758;BME280;55747;51.998;4.466;2023-04-06T00:40:56;56324.88;;;-144.48;71.17
68758;BME280;55747;51.998;4.466;2023-04-06T00:43:21;56295.91;;;-144.48;71.16
68758;BME280;55747;51.998;4.466;2023-04-06T00:45:47;56341.41;;;-144.48;71.00
68758;BME280;55747;51.998;4.466;2023-04-06T00:48:12;56285.59;;;-144.48;70.16
68758;BME280;55747;51.998;4.466;2023-04-06T00:50:38;56331.06;;;-144.48;69.99
68758;BME280;55747;51.998;4.466;2023-04-06T00:53:03;56298.00;;;-144.48;69.68
68758;BME280;55747;51.998;4.466;2023-04-06T00:55:28;56318.66;;;-144.48;69.11
68758;BME280;55747;51.998;4.466;2023-04-06T00:57:54;56324.88;;;-144.48;69.19
68758;BME280;55747;51.998;4.466;2023-04-06T01:00:20;56314.53;;;-144.48;69.45
68758;BME280;55747;51.998;4.466;2023-04-06T01:02:45;56320.72;;;-144.48;68.30
68758;BME280;55747;51.998;4.466;2023-04-06T01:05:11;56326.94;;;-144.48;68.65
68758;BME280;55747;51.998;4.466;2023-04-06T01:07:36;56329.00;;;-144.48;67.54
68758;BME280;55747;51.998;4.466;2023-04-06T01:10:02;56289.72;;;-144.48;68.20
68758;BME280;55747;51.998;4.466;2023-04-06T01:12:27;56318.66;;;-144.48;66.39
68758;BME280;55747;51.998;4.466;2023-04-06T01:14:53;56291.78;;;-144.48;67.40
68758;BME280;55747;51.998;4.466;2023-04-06T01:17:18;56320.72;;;-144.48;67.10
68758;BME280;55747;51.998;4.466;2023-04-06T01:19:43;56333.13;;;-144.48;66.70
68758;BME280;55747;51.998;4.466;2023-04-06T01:22:13;56291.78;;;-144.48;66.58
68758;BME280;55747;51.998;4.466;2023-04-06T01:24:39;56302.13;;;-144.48;66.13
68758;BME280;55747;51.998;4.466;2023-04-06T01:27:04;56300.06;;;-144.48;66.11
68758;BME280;55747;51.998;4.466;2023-04-06T01:29:29;56289.72;;;-144.48;65.67
68758;BME280;55747;51.998;4.466;2023-04-06T01:31:54;56304.19;;;-144.48;65.47
68758;BME280;55747;51.998;4.466;2023-04-06T01:34:20;56339.34;;;-144.48;65.51
68758;BME280;55747;51.998;4.466;2023-04-06T01:36:45;56320.72;;;-144.48;65.15
68758;BME280;55747;51.998;4.466;2023-04-06T01:39:11;56304.19;;;-144.48;64.89
68758;BME280;55747;51.998;4.466;2023-04-06T01:41:36;56308.31;;;-144.48;64.46
68758;BME280;55747;51.998;4.466;2023-04-06T01:44:01;56304.19;;;-144.48;64.42
68758;BME280;55747;51.998;4.466;2023-04-06T01:46:27;56324.88;;;-144.48;64.53
68758;BME280;55747;51.998;4.466;2023-04-06T01:48:52;56281.44;;;-144.48;63.84
68758;BME280;55747;51.998;4.466;2023-04-06T01:51:17;56339.34;;;-144.48;63.89
68758;BME280;55747;51.998;4.466;2023-04-06T01:53:42;56273.19;;;-144.48;63.74
68758;BME280;55747;51.998;4.466;2023-04-06T01:56:08;56304.19;;;-144.48;62.89
68758;BME280;55747;51.998;4.466;2023-04-06T01:58:33;56329.00;;;-144.48;62.63
68758;BME280;55747;51.998;4.466;2023-04-06T02:00:58;56304.19;;;-144.48;62.55
68758;BME280;55747;51.998;4.466;2023-04-06T02:03:23;56293.84;;;-144.48;63.00
68758;BME280;55747;51.998;4.466;2023-04-06T02:05:49;56316.59;;;-144.48;62.91
68758;BME280;55747;51.998;4.466;2023-04-06T02:08:14;56343.47;;;-144.48;62.46
68758;BME280;55747;51.998;4.466;2023-04-06T02:10:39;56285.59;;;-144.48;62.46
68758;BME280;55747;51.998;4.466;2023-04-06T02:13:04;56320.72;;;-144.48;62.74
68758;BME280;55747;51.998;4.466;2023-04-06T02:15:29;56339.34;;;-144.48;64.00
68758;BME280;55747;51.998;4.466;2023-04-06T02:17:55;56304.19;;;-144.48;62.93
68758;BME280;55747;51.998;4.466;2023-04-06T02:20:20;56279.38;;;-144.48;63.23
68758;BME280;55747;51.998;4.466;2023-04-06T02:22:45;56291.78;;;-144.48;63.73
68758;BME280;55747;51.998;4.466;2023-04-06T02:25:10;56298.00;;;-144.48;64.15
68758;BME280;55747;51.998;4.466;2023-04-06T02:27:36;56314.53;;;-144.48;63.66
68758;BME280;55747;51.998;4.466;2023-04-06T02:30:02;56333.13;;;-144.48;63.51
68758;BME280;55747;51.998;4.466;2023-04-06T02:32:30;56293.84;;;-144.48;63.29
68758;BME280;55747;51.998;4.466;2023-04-06T02:34:56;56333.13;;;-144.48;63.79
68758;BME280;55747;51.998;4.466;2023-04-06T02:37:21;56281.44;;;-144.48;64.18
68758;BME280;55747;51.998;4.466;2023-04-06T02:39:47;56293.84;;;-144.48;64.64
68758;BME280;55747;51.998;4.466;2023-04-06T02:42:12;56302.13;;;-144.48;64.31
68758;BME280;55747;51.998;4.466;2023-04-06T02:44:37;56300.06;;;-144.48;64.80
68758;BME280;55747;51.998;4.466;2023-04-06T02:47:02;56320.72;;;-144.48;64.76
68758;BME280;55747;51.998;4.466;2023-04-06T02:49:28;56331.06;;;-144.48;64.42
68758;BME280;55747;51.998;4.466;2023-04-06T02:51:53;56322.78;;;-144.48;64.62
68758;BME280;55747;51.998;4.466;2023-04-06T02:54:21;56322.78;;;-144.48;65.25
68758;BME280;55747;51.998;4.466;2023-04-06T02:56:46;56339.34;;;-144.48;65.14
68758;BME280;55747;51.998;4.466;2023-04-06T02:59:11;56304.19;;;-144.48;65.17
68758;BME280;55747;51.998;4.466;2023-04-06T03:01:36;56300.06;;;-144.48;64.88
68758;BME280;55747;51.998;4.466;2023-04-06T03:04:02;56289.72;;;-144.48;64.56
68758;BME280;55747;51.998;4.466;2023-04-06T03:06:27;56326.94;;;-144.48;64.88
68758;BME280;55747;51.998;4.466;2023-04-06T03:08:52;56293.84;;;-144.48;64.91
68758;BME280;55747;51.998;4.466;2023-04-06T03:11:17;56322.78;;;-144.48;64.93
68758;BME280;55747;51.998;4.466;2023-04-06T03:13:43;56291.78;;;-144.48;65.78
68758;BME280;55747;51.998;4.466;2023-04-06T03:16:08;56302.13;;;-144.48;65.31
68758;BME280;55747;51.998;4.466;2023-04-06T03:18:33;56258.72;;;-144.48;65.58
68758;BME280;55747;51.998;4.466;2023-04-06T03:20:58;56322.78;;;-144.48;65.28
68758;BME280;55747;51.998;4.466;2023-04-06T03:23:25;56308.31;;;-144.48;66.07
68758;BME280;55747;51.998;4.466;2023-04-06T03:25:50;56339.34;;;-144.48;65.82
68758;BME280;55747;51.998;4.466;2023-04-06T03:28:15;56285.59;;;-144.48;65.36
68758;BME280;55747;51.998;4.466;2023-04-06T03:30:41;56339.34;;;-144.48;66.11
68758;BME280;55747;51.998;4.466;2023-04-06T03:33:06;56349.66;;;-144.48;66.37
68758;BME280;55747;51.998;4.466;2023-04-06T03:35:31;56304.19;;;-144.48;66.05
68758;BME280;55747;51.998;4.466;2023-04-06T03:37:56;56285.59;;;-144.48;66.15
68758;BME280;55747;51.998;4.466;2023-04-06T03:40:22;56304.19;;;-144.48;66.62
68758;BME280;55747;51.998;4.466;2023-04-06T03:42:47;56335.19;;;-144.48;66.82
68758;BME280;55747;51.998;4.466;2023-04-06T03:45:13;56304.19;;;-144.48;66.22
68758;BME280;55747;51.998;4.466;2023-04-06T03:47:38;56287.66;;;-144.48;65.90
68758;BME280;55747;51.998;4.466;2023-04-06T03:50:04;56318.66;;;-144.48;66.09
68758;BME280;55747;51.998;4.466;2023-04-06T03:52:29;56308.31;;;-144.48;66.11
68758;BME280;55747;51.998;4.466;2023-04-06T03:54:55;56312.47;;;-144.48;66.91
68758;BME280;55747;51.998;4.466;2023-04-06T03:57:20;56324.88;;;-144.48;67.77
68758;BME280;55747;51.998;4.466;2023-04-06T03:59:45;56331.06;;;-144.48;66.66
68758;BME280;55747;51.998;4.466;2023-04-06T04:02:10;56302.13;;;-144.48;68.26
68758;BME280;55747;51.998;4.466;2023-04-06T04:04:36;56295.91;;;-144.48;65.28
68758;BME280;55747;51.998;4.466;2023-04-06T04:07:01;56314.53;;;-144.48;66.03
68758;BME280;55747;51.998;4.466;2023-04-06T04:09:26;56281.44;;;-144.48;66.08
68758;BME280;55747;51.998;4.466;2023-04-06T04:11:51;56316.59;;;-144.48;66.12
68758;BME280;55747;51.998;4.466;2023-04-06T04:14:16;56345.53;;;-144.48;66.69
68758;BME280;55747;51.998;4.466;2023-04-06T04:16:42;56360.00;;;-144.48;66.49
68758;BME280;55747;51.998;4.466;2023-04-06T04:19:07;56345.53;;;-144.48;67.67
68758;BME280;55747;51.998;4.466;2023-04-06T04:21:32;56345.53;;;-144.48;68.31
68758;BME280;55747;51.998;4.466;2023-04-06T04:23:58;56335.19;;;-144.48;68.50
68758;BME280;55747;51.998;4.466;2023-04-06T04:26:23;56331.06;;;-144.48;69.13
68758;BME280;55747;51.998;4.466;2023-04-06T04:28:48;56339.34;;;-144.48;69.36
68758;BME280;55747;51.998;4.466;2023-04-06T04:31:13;56339.34;;;-144.48;69.54
68758;BME280;55747;51.998;4.466;2023-04-06T04:33:38;56341.41;;;-144.48;70.62
68758;BME280;55747;51.998;4.466;2023-04-06T04:36:04;56347.59;;;-144.48;71.33
68758;BME280;55747;51.998;4.466;2023-04-06T04:38:29;56308.31;;;-144.48;71.33
68758;BME280;55747;51.998;4.466;2023-04-06T04:40:54;56302.13;;;-144.48;72.00
68758;BME280;55747;51.998;4.466;2023-04-06T04:43:19;56310.38;;;-144.48;72.45
68758;BME280;55747;51.998;4.466;2023-04-06T04:45:45;56353.81;;;-144.48;73.39
68758;BME280;55747;51.998;4.466;2023-04-06T04:48:10;56322.78;;;-144.48;72.94
68758;BME280;55747;51.998;4.466;2023-04-06T04:50:35;56304.19;;;-144.48;73.91
68758;BME280;55747;51.998;4.466;2023-04-06T04:53:01;56279.38;;;-144.48;74.38
68758;BME280;55747;51.998;4.466;2023-04-06T04:55:26;56302.13;;;-144.48;74.11
68758;BME280;55747;51.998;4.466;2023-04-06T04:57:51;56273.19;;;-144.48;74.94
68758;BME280;55747;51.998;4.466;2023-04-06T05:00:16;56333.13;;;-144.48;74.96
68758;BME280;55747;51.998;4.466;2023-04-06T05:02:42;56295.91;;;-144.48;75.28
68758;BME280;55747;51.998;4.466;2023-04-06T05:05:07;56343.47;;;-144.48;75.65
68758;BME280;55747;51.998;4.466;2023-04-06T05:07:32;56345.53;;;-144.48;75.86
68758;BME280;55747;51.998;4.466;2023-04-06T05:09:58;56316.59;;;-144.48;76.16
68758;BME280;55747;51.998;4.466;2023-04-06T05:12:24;56343.47;;;-144.48;77.19
68758;BME280;55747;51.998;4.466;2023-04-06T05:14:49;56285.59;;;-144.48;77.44
68758;BME280;55747;51.998;4.466;2023-04-06T05:17:15;56347.59;;;-144.48;77.39
68758;BME280;55747;51.998;4.466;2023-04-06T05:19:40;56343.47;;;-144.48;77.62
68758;BME280;55747;51.998;4.466;2023-04-06T05:22:05;56343.47;;;-144.48;78.14
68758;BME280;55747;51.998;4.466;2023-04-06T05:24:30;56326.94;;;-144.48;78.58
68758;BME280;55747;51.998;4.466;2023-04-06T05:26:56;56300.06;;;-144.48;78.35
68758;BME280;55747;51.998;4.466;2023-04-06T05:29:21;56331.06;;;-144.48;79.00
68758;BME280;55747;51.998;4.466;2023-04-06T05:31:46;56322.78;;;-144.48;79.86
68758;BME280;55747;51.998;4.466;2023-04-06T05:34:12;56300.06;;;-144.48;79.59
68758;BME280;55747;51.998;4.466;2023-04-06T05:36:37;56335.19;;;-144.48;79.76
68758;BME280;55747;51.998;4.466;2023-04-06T05:39:02;56308.31;;;-144.48;80.06
68758;BME280;55747;51.998;4.466;2023-04-06T05:41:28;56364.13;;;-144.48;80.65
68758;BME280;55747;51.998;4.466;2023-04-06T05:43:53;56310.38;;;-144.48;80.21
68758;BME280;55747;51.998;4.466;2023-04-06T05:46:18;56331.06;;;-144.48;80.42
68758;BME280;55747;51.998;4.466;2023-04-06T05:48:43;56333.13;;;-144.48;80.69
68758;BME280;55747;51.998;4.466;2023-04-06T05:51:08;56345.53;;;-144.48;80.63
68758;BME280;55747;51.998;4.466;2023-04-06T05:53:34;56345.53;;;-144.48;80.54
68758;BME280;55747;51.998;4.466;2023-04-06T05:56:02;56335.19;;;-144.48;81.03
68758;BME280;55747;51.998;4.466;2023-04-06T05:58:28;56333.13;;;-144.48;80.57
68758;BME280;55747;51.998;4.466;2023-04-06T06:00:57;56326.94;;;-144.48;81.47
68758;BME280;55747;51.998;4.466;2023-04-06T06:03:22;56341.41;;;-144.48;81.30
68758;BME280;55747;51.998;4.466;2023-04-06T06:05:47;56364.13;;;-144.48;81.05
68758;BME280;55747;51.998;4.466;2023-04-06T06:08:13;56351.75;;;-144.48;81.90
68758;BME280;55747;51.998;4.466;2023-04-06T06:10:38;56316.59;;;-144.48;81.63
68758;BME280;55747;51.998;4.466;2023-04-06T06:13:04;56339.34;;;-144.48;81.46
68758;BME280;55747;51.998;4.466;2023-04-06T06:15:29;56322.78;;;-144.48;82.07
68758;BME280;55747;51.998;4.466;2023-04-06T06:17:54;56324.88;;;-144.48;81.56
68758;BME280;55747;51.998;4.466;2023-04-06T06:20:19;56349.66;;;-144.48;81.62
68758;BME280;55747;51.998;4.466;2023-04-06T06:22:45;56341.41;;;-144.48;81.59
68758;BME280;55747;51.998;4.466;2023-04-06T06:25:10;56345.53;;;-144.48;81.35
68758;BME280;55747;51.998;4.466;2023-04-06T06:27:35;56333.13;;;-144.48;81.05
68758;BME280;55747;51.998;4.466;2023-04-06T06:30:01;56337.25;;;-144.48;80.54
68758;BME280;55747;51.998;4.466;2023-04-06T06:32:26;56349.66;;;-144.48;80.89
68758;BME280;55747;51.998;4.466;2023-04-06T06:34:51;56326.94;;;-144.48;81.35
68758;BME280;55747;51.998;4.466;2023-04-06T06:37:17;56335.19;;;-144.48;81.69
68758;BME280;55747;51.998;4.466;2023-04-06T06:39:42;56312.47;;;-144.48;81.13
68758;BME280;55747;51.998;4.466;2023-04-06T06:42:07;56324.88;;;-144.48;81.06
68758;BME280;55747;51.998;4.466;2023-04-06T06:44:32;56289.72;;;-144.48;81.13
68758;BME280;55747;51.998;4.466;2023-04-06T06:46:57;56345.53;;;-144.48;81.59
68758;BME280;55747;51.998;4.466;2023-04-06T06:49:23;56341.41;;;-144.48;81.97
68758;BME280;55747;51.998;4.466;2023-04-06T06:51:48;56329.00;;;-144.48;81.86
68758;BME280;55747;51.998;4.466;2023-04-06T06:54:13;56308.31;;;-144.48;82.35
68758;BME280;55747;51.998;4.466;2023-04-06T06:56:39;56324.88;;;-144.48;81.87
68758;BME280;55747;51.998;4.466;2023-04-06T06:59:04;56306.25;;;-144.48;81.88
68758;BME280;55747;51.998;4.466;2023-04-06T07:01:31;56337.25;;;-144.48;82.11
68758;BME280;55747;51.998;4.466;2023-04-06T07:03:56;56339.34;;;-144.48;82.38
68758;BME280;55747;51.998;4.466;2023-04-06T07:06:22;56388.94;;;-144.48;82.78
68758;BME280;55747;51.998;4.466;2023-04-06T07:08:47;56376.53;;;-144.48;83.16
68758;BME280;55747;51.998;4.466;2023-04-06T07:11:12;56343.47;;;-144.48;83.90
68758;BME280;55747;51.998;4.466;2023-04-06T07:13:38;56353.81;;;-144.48;84.21
68758;BME280;55747;51.998;4.466;2023-04-06T07:16:03;56351.75;;;-144.48;84.28
68758;BME280;55747;51.998;4.466;2023-04-06T07:18:28;56308.31;;;-144.48;85.78
68758;BME280;55747;51.998;4.466;2023-04-06T07:20:53;56337.25;;;-144.48;85.78
68758;BME280;55747;51.998;4.466;2023-04-06T07:23:19;56335.19;;;-144.48;86.11
68758;BME280;55747;51.998;4.466;2023-04-06T07:25:44;56343.47;;;-144.48;86.32
68758;BME280;55747;51.998;4.466;2023-04-06T07:28:10;56335.19;;;-144.48;87.37
68758;BME280;55747;51.998;4.466;2023-04-06T07:30:36;56337.25;;;-144.48;88.92
68758;BME280;55747;51.998;4.466;2023-04-06T07:33:01;56331.06;;;-144.48;89.22
68758;BME280;55747;51.998;4.466;2023-04-06T07:35:26;56322.78;;;-144.48;90.14
68758;BME280;55747;51.998;4.466;2023-04-06T07:37:52;56308.31;;;-144.48;91.67
68758;BME280;55747;51.998;4.466;2023-04-06T07:40:18;56335.19;;;-144.48;91.75
68758;BME280;55747;51.998;4.466;2023-04-06T07:42:44;56355.88;;;-144.48;93.29
68758;BME280;55747;51.998;4.466;2023-04-06T07:45:10;56347.59;;;-144.48;93.52
68758;BME280;55747;51.998;4.466;2023-04-06T07:47:35;56351.75;;;-144.48;94.42
68758;BME280;55747;51.998;4.466;2023-04-06T07:50:00;56372.41;;;-144.48;93.31
68758;BME280;55747;51.998;4.466;2023-04-06T07:52:25;56337.25;;;-144.48;93.08
68758;BME280;55747;51.998;4.466;2023-04-06T07:54:50;56339.34;;;-144.48;93.55
68758;BME280;55747;51.998;4.466;2023-04-06T07:57:16;56335.19;;;-144.48;93.86
68758;BME280;55747;51.998;4.466;2023-04-06T07:59:41;56364.13;;;-144.48;94.45
68758;BME280;55747;51.998;4.466;2023-04-06T08:02:06;56351.75;;;-144.48;95.43
68758;BME280;55747;51.998;4.466;2023-04-06T08:04:32;56380.69;;;-144.48;97.74
68758;BME280;55747;51.998;4.466;2023-04-06T08:06:57;56345.53;;;-144.48;100.00
68758;BME280;55747;51.998;4.466;2023-04-06T08:09:22;56343.47;;;-144.48;100.00
68758;BME280;55747;51.998;4.466;2023-04-06T08:11:48;56351.75;;;-144.48;100.00
68758;BME280;55747;51.998;4.466;2023-04-06T08:14:14;56339.34;;;-144.48;100.00
68758;BME280;55747;51.998;4.466;2023-04-06T08:16:40;56355.88;;;-144.48;100.00
68758;BME280;55747;51.998;4.466;2023-04-06T08:19:05;56335.19;;;-144.48;100.00
68758;BME280;55747;51.998;4.466;2023-04-06T08:21:32;56335.19;;;-144.48;100.00
68758;BME280;55747;51.998;4.466;2023-04-06T08:23:57;56347.59;;;-144.48;100.00
68758;BME280;55747;51.998;4.466;2023-04-06T08:26:23;56393.09;;;-144.48;100.00
68758;BME280;55747;51.998;4.466;2023-04-06T08:28:48;56345.53;;;-144.48;100.00
68758;BME280;55747;51.998;4.466;2023-04-06T08:31:13;56360.00;;;-144.48;100.00
68758;BME280;55747;51.998;4.466;2023-04-06T08:33:38;56347.59;;;-144.48;100.00
68758;BME280;55747;51.998;4.466;2023-04-06T08:36:08;56391.00;;;-144.48;100.00
68758;BME280;55747;51.998;4.466;2023-04-06T08:38:33;56316.59;;;-144.48;100.00
68758;BME280;55747;51.998;4.466;2023-04-06T08:41:06;56357.94;;;-144.48;100.00
68758;BME280;55747;51.998;4.466;2023-04-06T08:43:31;56355.88;;;-144.48;100.00
68758;BME280;55747;51.998;4.466;2023-04-06T08:45:57;56322.78;;;-144.48;100.00
68758;BME280;55747;51.998;4.466;2023-04-06T08:48:24;56368.28;;;-144.48;100.00
68758;BME280;55747;51.998;4.466;2023-04-06T08:50:49;56405.50;;;-144.48;100.00
68758;BME280;55747;51.998;4.466;2023-04-06T08:53:15;56357.94;;;-144.48;100.00
68758;BME280;55747;51.998;4.466;2023-04-06T08:55:41;56397.22;;;-144.48;100.00
68758;BME280;55747;51.998;4.466;2023-04-06T08:58:07;56382.75;;;-144.48;100.00
68758;BME280;55747;51.998;4.466;2023-04-06T09:00:33;56393.09;;;-144.48;100.00
68758;BME280;55747;51.998;4.466;2023-04-06T09:03:02;56374.47;;;-144.48;100.00
68758;BME280;55747;51.998;4.466;2023-04-06T09:05:28;56360.00;;;-144.48;100.00
68758;BME280;55747;51.998;4.466;2023-04-06T09:07:53;56378.63;;;-144.48;100.00
68758;BME280;55747;51.998;4.466;2023-04-06T09:10:19;56384.81;;;-144.48;100.00
68758;BME280;55747;51.998;4.466;2023-04-06T09:12:45;56353.81;;;-144.48;100.00
68758;BME280;55747;51.998;4.466;2023-04-06T09:15:20;56339.34;;;-144.48;100.00
68758;BME280;55747;51.998;4.466;2023-04-06T09:17:45;56378.63;;;-144.48;100.00
68758;BME280;55747;51.998;4.466;2023-04-06T09:20:11;56333.13;;;-144.48;100.00
68758;BME280;55747;51.998;4.466;2023-04-06T09:22:37;56351.75;;;-144.48;100.00
68758;BME280;55747;51.998;4.466;2023-04-06T09:25:02;56362.06;;;-144.48;100.00
68758;BME280;55747;51.998;4.466;2023-04-06T09:27:31;56357.94;;;-144.48;100.00
68758;BME280;55747;51.998;4.466;2023-04-06T09:30:03;56355.88;;;-144.48;100.00
68758;BME280;55747;51.998;4.466;2023-04-06T09:32:30;56341.41;;;-144.48;100.00
68758;BME280;55747;51.998;4.466;2023-04-06T09:35:05;56405.50;;;-144.48;100.00
68758;BME280;55747;51.998;4.466;2023-04-06T09:37:30;56374.47;;;-144.48;100.00
68758;BME280;55747;51.998;4.466;2023-04-06T09:40:01;56362.06;;;-144.48;100.00
68758;BME280;55747;51.998;4.466;2023-04-06T09:42:27;56391.00;;;-144.48;100.00
68758;BME280;55747;51.998;4.466;2023-04-06T09:44:52;56355.88;;;-144.48;100.00
68758;BME280;55747;51.998;4.466;2023-04-06T09:47:17;56349.66;;;-144.48;100.00
68758;BME280;55747;51.998;4.466;2023-04-06T09:49:43;56382.75;;;-144.48;100.00
68758;BME280;55747;51.998;4.466;2023-04-06T09:52:10;56376.53;;;-144.48;100.00
68758;BME280;55747;51.998;4.466;2023-04-06T09:54:36;56353.81;;;-144.48;100.00
68758;BME280;55747;51.998;4.466;2023-04-06T10:01:55;56378.63;;;-144.48;100.00
68758;BME280;55747;51.998;4.466;2023-04-06T10:06:46;56391.00;;;-144.48;100.00
68758;BME280;55747;51.998;4.466;2023-04-06T10:09:16;56401.34;;;-144.48;100.00
68758;BME280;55747;51.998;4.466;2023-04-06T10:11:42;56378.63;;;-144.48;100.00
68758;BME280;55747;51.998;4.466;2023-04-06T10:14:07;56347.59;;;-144.48;100.00
68758;BME280;55747;51.998;4.466;2023-04-06T10:16:32;56353.81;;;-144.48;100.00
68758;BME280;55747;51.998;4.466;2023-04-06T10:19:04;56372.41;;;-144.48;100.00
68758;BME280;55747;51.998;4.466;2023-04-06T10:21:32;56382.75;;;-144.48;100.00
68758;BME280;55747;51.998;4.466;2023-04-06T10:23:58;56405.50;;;-144.48;100.00
68758;BME280;55747;51.998;4.466;2023-04-06T10:26:24;56395.16;;;-144.48;100.00
68758;BME280;55747;51.998;4.466;2023-04-06T10:28:50;56382.75;;;-144.48;100.00
68758;BME280;55747;51.998;4.466;2023-04-06T10:31:23;56360.00;;;-144.48;100.00
68758;BME280;55747;51.998;4.466;2023-04-06T10:33:58;56397.22;;;-144.48;100.00
68758;BME280;55747;51.998;4.466;2023-04-06T10:36:25;56337.25;;;-144.48;100.00
68758;BME280;55747;51.998;4.466;2023-04-06T10:38:55;56374.47;;;-144.48;100.00
68758;BME280;55747;51.998;4.466;2023-04-06T10:41:22;56391.00;;;-144.48;100.00
68758;BME280;55747;51.998;4.466;2023-04-06T10:43:54;56345.53;;;-144.48;100.00
68758;BME280;55747;51.998;4.466;2023-04-06T10:46:24;56357.94;;;-144.48;100.00
68758;BME280;55747;51.998;4.466;2023-04-06T10:48:49;56337.25;;;-144.48;100.00
68758;BME280;55747;51.998;4.466;2023-04-06T10:51:16;56407.56;;;-144.48;100.00
68758;BME280;55747;51.998;4.466;2023-04-06T10:53:42;56357.94;;;-144.48;100.00
68758;BME280;55747;51.998;4.466;2023-04-06T10:56:11;56368.28;;;-144.48;100.00
68758;BME280;55747;51.998;4.466;2023-04-06T10:58:37;56391.00;;;-144.48;100.00
68758;BME280;55747;51.998;4.466;2023-04-06T11:01:02;56397.22;;;-144.48;100.00
68758;BME280;55747;51.998;4.466;2023-04-06T11:03:29;56391.00;;;-144.48;100.00
68758;BME280;55747;51.998;4.466;2023-04-06T11:05:54;56386.88;;;-144.48;100.00
68758;BME280;55747;51.998;4.466;2023-04-06T11:08:24;56353.81;;;-144.48;100.00
68758;BME280;55747;51.998;4.466;2023-04-06T11:11:06;56393.09;;;-144.48;100.00
68758;BME280;55747;51.998;4.466;2023-04-06T11:13:42;56386.88;;;-144.48;100.00
68758;BME280;55747;51.998;4.466;2023-04-06T11:16:21;56378.63;;;-144.48;100.00
68758;BME280;55747;51.998;4.466;2023-04-06T11:18:47;56339.34;;;-144.48;100.00
68758;BME280;55747;51.998;4.466;2023-04-06T11:21:12;56364.13;;;-144.48;100.00
68758;BME280;55747;51.998;4.466;2023-04-06T11:23:37;56372.41;;;-144.48;100.00
68758;BME280;55747;51.998;4.466;2023-04-06T11:26:03;56302.13;;;-144.48;100.00
68758;BME280;55747;51.998;4.466;2023-04-06T11:28:28;56378.63;;;-144.48;100.00
68758;BME280;55747;51.998;4.466;2023-04-06T11:30:53;56382.75;;;-144.48;100.00
68758;BME280;55747;51.998;4.466;2023-04-06T11:33:22;56401.34;;;-144.48;100.00
68758;BME280;55747;51.998;4.466;2023-04-06T11:35:50;56411.69;;;-144.48;100.00
68758;BME280;55747;51.998;4.466;2023-04-06T11:38:17;56368.28;;;-144.48;100.00
68758;BME280;55747;51.998;4.466;2023-04-06T11:40:42;56395.16;;;-144.48;100.00
68758;BME280;55747;51.998;4.466;2023-04-06T11:43:10;56384.81;;;-144.48;100.00
68758;BME280;55747;51.998;4.466;2023-04-06T11:45:39;56405.50;;;-144.48;100.00
68758;BME280;55747;51.998;4.466;2023-04-06T11:48:04;56399.28;;;-144.48;100.00
68758;BME280;55747;51.998;4.466;2023-04-06T11:50:33;56380.69;;;-144.48;100.00
68758;BME280;55747;51.998;4.466;2023-04-06T11:53:01;56434.44;;;-144.48;100.00
68758;BME280;55747;51.998;4.466;2023-04-06T11:55:27;56362.06;;;-144.48;100.00
68758;BME280;55747;51.998;4.466;2023-04-06T11:57:52;56407.56;;;-144.48;100.00
68758;BME280;55747;51.998;4.466;2023-04-06T12:00:18;56424.09;;;-144.48;100.00
68758;BME280;55747;51.998;4.466;2023-04-06T12:02:48;56372.41;;;-144.48;100.00
68758;BME280;55747;51.998;4.466;2023-04-06T12:05:13;56380.69;;;-144.48;100.00
68758;BME280;55747;51.998;4.466;2023-04-06T12:07:39;56407.56;;;-144.48;100.00
68758;BME280;55747;51.998;4.466;2023-04-06T12:10:04;56417.91;;;-144.48;100.00
68758;BME280;55747;51.998;4.466;2023-04-06T12:12:30;56399.28;;;-144.48;100.00
68758;BME280;55747;51.998;4.466;2023-04-06T12:14:56;56393.09;;;-144.48;100.00
68758;BME280;55747;51.998;4.466;2023-04-06T12:17:21;56393.09;;;-144.48;100.00
68758;BME280;55747;51.998;4.466;2023-04-06T12:19:46;56370.34;;;-144.48;100.00
68758;BME280;55747;51.998;4.466;2023-04-06T12:22:11;56395.16;;;-144.48;100.00
68758;BME280;55747;51.998;4.466;2023-04-06T12:24:37;56397.22;;;-144.48;100.00
68758;BME280;55747;51.998;4.466;2023-04-06T12:27:02;56422.03;;;-144.48;100.00
68758;BME280;55747;51.998;4.466;2023-04-06T12:29:28;56407.56;;;-144.48;100.00
68758;BME280;55747;51.998;4.466;2023-04-06T12:31:56;56372.41;;;-144.48;100.00
68758;BME280;55747;51.998;4.466;2023-04-06T12:34:21;56409.63;;;-144.48;100.00
68758;BME280;55747;51.998;4.466;2023-04-06T12:36:46;56388.94;;;-144.48;100.00